sensor_id;sensor_type;location;lat;lon;timestamp;pressure;altitude;pressure_sealevel;temperature;humidity
68226;BME280;55045;49.410;11.030;2022-08-19T00:02:00;97460.56;;;20.48;100.00
68226;BME280;55045;49.410;11.030;2022-08-19T00:05:04;97459.41;;;20.50;100.00
68226;BME280;55045;49.410;11.030;2022-08-19T00:08:08;97454.13;;;20.32;100.00
68226;BME280;55045;49.410;11.030;2022-08-19T00:11:13;97455.81;;;20.33;100.00
68226;BME280;55045;49.410;11.030;2022-08-19T00:14:27;97444.63;;;20.22;100.00
68226;BME280;55045;49.410;11.030;2022-08-19T00:17:33;97450.06;;;20.20;100.00
68226;BME280;55045;49.410;11.030;2022-08-19T00:20:42;97440.19;;;20.22;100.00
68226;BME280;55045;49.410;11.030;2022-08-19T00:23:46;97438.13;;;20.26;100.00
68226;BME280;55045;49.410;11.030;2022-08-19T00:26:51;97436.47;;;20.25;100.00
68226;BME280;55045;49.410;11.030;2022-08-19T00:29:54;97440.97;;;20.14;100.00
68226;BME280;55045;49.410;11.030;2022-08-19T00:32:58;97420.59;;;20.17;100.00
68226;BME280;55045;49.410;11.030;2022-08-19T00:36:04;97440.38;;;20.03;100.00
68226;BME280;55045;49.410;11.030;2022-08-19T00:39:08;97450.59;;;20.24;100.00
68226;BME280;55045;49.410;11.030;2022-08-19T00:42:13;97444.88;;;20.28;100.00
68226;BME280;55045;49.410;11.030;2022-08-19T00:45:19;97436.75;;;20.04;100.00
68226;BME280;55045;49.410;11.030;2022-08-19T00:48:22;97455.41;;;20.10;100.00
68226;BME280;55045;49.410;11.030;2022-08-19T00:51:27;97469.63;;;20.18;100.00
68226;BME280;55045;49.410;11.030;2022-08-19T00:54:35;97468.97;;;20.33;100.00
68226;BME280;55045;49.410;11.030;2022-08-19T00:57:46;97487.69;;;20.30;100.00
68226;BME280;55045;49.410;11.030;2022-08-19T01:00:50;97469.31;;;20.21;100.00
68226;BME280;55045;49.410;11.030;2022-08-19T01:03:54;97459.19;;;20.26;100.00
68226;BME280;55045;49.410;11.030;2022-08-19T01:07:01;97465.03;;;20.37;100.00
68226;BME280;55045;49.410;11.030;2022-08-19T01:10:07;97466.16;;;20.17;100.00
68226;BME280;55045;49.410;11.030;2022-08-19T01:13:14;97461.88;;;20.16;100.00
68226;BME280;55045;49.410;11.030;2022-08-19T01:16:20;97464.13;;;20.29;100.00
68226;BME280;55045;49.410;11.030;2022-08-19T01:19:28;97465.72;;;20.39;100.00
68226;BME280;55045;49.410;11.030;2022-08-19T01:22:48;97460.38;;;20.13;100.00
68226;BME280;55045;49.410;11.030;2022-08-19T01:25:52;97465.44;;;20.42;100.00
68226;BME280;55045;49.410;11.030;2022-08-19T01:28:59;97478.03;;;20.21;100.00
68226;BME280;55045;49.410;11.030;2022-08-19T01:32:06;97471.69;;;20.24;100.00
68226;BME280;55045;49.410;11.030;2022-08-19T01:35:31;97476.00;;;20.33;100.00
68226;BME280;55045;49.410;11.030;2022-08-19T01:38:38;97481.44;;;20.31;100.00
68226;BME280;55045;49.410;11.030;2022-08-19T01:41:45;97482.41;;;20.30;100.00
68226;BME280;55045;49.410;11.030;2022-08-19T01:44:48;97479.19;;;20.19;100.00
68226;BME280;55045;49.410;11.030;2022-08-19T01:47:52;97474.78;;;20.55;100.00
68226;BME280;55045;49.410;11.030;2022-08-19T01:51:03;97473.75;;;20.20;100.00
68226;BME280;55045;49.410;11.030;2022-08-19T01:54:09;97489.72;;;20.36;100.00
68226;BME280;55045;49.410;11.030;2022-08-19T01:57:14;97495.00;;;20.36;100.00
68226;BME280;55045;49.410;11.030;2022-08-19T02:00:19;97495.66;;;20.38;100.00
68226;BME280;55045;49.410;11.030;2022-08-19T02:03:23;97485.03;;;20.30;100.00
68226;BME280;55045;49.410;11.030;2022-08-19T02:06:26;97483.63;;;20.18;100.00
68226;BME280;55045;49.410;11.030;2022-08-19T02:09:32;97485.03;;;20.30;100.00
68226;BME280;55045;49.410;11.030;2022-08-19T02:12:35;97489.28;;;20.23;100.00
68226;BME280;55045;49.410;11.030;2022-08-19T02:15:39;97501.53;;;20.32;100.00
68226;BME280;55045;49.410;11.030;2022-08-19T02:18:42;97510.50;;;20.39;100.00
68226;BME280;55045;49.410;11.030;2022-08-19T02:21:46;97510.59;;;20.48;100.00
68226;BME280;55045;49.410;11.030;2022-08-19T02:24:51;97524.09;;;20.17;100.00
68226;BME280;55045;49.410;11.030;2022-08-19T02:27:55;97529.13;;;20.28;100.00
68226;BME280;55045;49.410;11.030;2022-08-19T02:30:59;97527.09;;;20.22;100.00
68226;BME280;55045;49.410;11.030;2022-08-19T02:34:04;97525.84;;;20.26;100.00
68226;BME280;55045;49.410;11.030;2022-08-19T02:37:07;97523.63;;;20.22;100.00
68226;BME280;55045;49.410;11.030;2022-08-19T02:40:37;97533.66;;;20.36;100.00
68226;BME280;55045;49.410;11.030;2022-08-19T02:43:39;97536.88;;;20.30;100.00
68226;BME280;55045;49.410;11.030;2022-08-19T02:47:03;97542.72;;;20.33;100.00
68226;BME280;55045;49.410;11.030;2022-08-19T02:50:07;97535.03;;;20.12;100.00
68226;BME280;55045;49.410;11.030;2022-08-19T02:53:11;97530.88;;;20.37;100.00
68226;BME280;55045;49.410;11.030;2022-08-19T02:56:16;97524.91;;;20.18;100.00
68226;BME280;55045;49.410;11.030;2022-08-19T02:59:20;97523.19;;;20.26;100.00
68226;BME280;55045;49.410;11.030;2022-08-19T03:02:24;97526.50;;;20.28;100.00
68226;BME280;55045;49.410;11.030;2022-08-19T03:05:27;97535.38;;;20.27;100.00
68226;BME280;55045;49.410;11.030;2022-08-19T03:08:51;97520.41;;;20.28;100.00
68226;BME280;55045;49.410;11.030;2022-08-19T03:11:56;97517.63;;;20.29;100.00
68226;BME280;55045;49.410;11.030;2022-08-19T03:15:00;97507.91;;;20.30;100.00
68226;BME280;55045;49.410;11.030;2022-08-19T03:18:03;97514.63;;;20.24;100.00
68226;BME280;55045;49.410;11.030;2022-08-19T03:21:09;97511.28;;;20.22;100.00
68226;BME280;55045;49.410;11.030;2022-08-19T03:24:19;97503.78;;;20.27;100.00
68226;BME280;55045;49.410;11.030;2022-08-19T03:27:23;97508.91;;;20.29;100.00
68226;BME280;55045;49.410;11.030;2022-08-19T03:34:31;97488.34;;;19.97;100.00
68226;BME280;55045;49.410;11.030;2022-08-19T03:37:35;97487.94;;;19.92;100.00
68226;BME280;55045;49.410;11.030;2022-08-19T03:40:42;97486.28;;;19.91;100.00
68226;BME280;55045;49.410;11.030;2022-08-19T03:43:46;97475.19;;;19.97;100.00
68226;BME280;55045;49.410;11.030;2022-08-19T03:46:53;97483.75;;;19.99;100.00
68226;BME280;55045;49.410;11.030;2022-08-19T03:49:58;97494.19;;;19.91;100.00
68226;BME280;55045;49.410;11.030;2022-08-19T03:53:02;97502.72;;;19.75;100.00
68226;BME280;55045;49.410;11.030;2022-08-19T03:56:08;97486.63;;;19.78;100.00
68226;BME280;55045;49.410;11.030;2022-08-19T03:59:13;97485.66;;;19.79;100.00
68226;BME280;55045;49.410;11.030;2022-08-19T04:02:17;97481.91;;;19.81;100.00
68226;BME280;55045;49.410;11.030;2022-08-19T04:05:22;97470.06;;;19.68;100.00
68226;BME280;55045;49.410;11.030;2022-08-19T04:08:28;97475.38;;;19.58;100.00
68226;BME280;55045;49.410;11.030;2022-08-19T04:11:36;97475.78;;;19.63;100.00
68226;BME280;55045;49.410;11.030;2022-08-19T04:14:46;97482.13;;;19.61;100.00
68226;BME280;55045;49.410;11.030;2022-08-19T04:17:49;97489.00;;;19.71;100.00
68226;BME280;55045;49.410;11.030;2022-08-19T04:20:54;97496.91;;;19.71;100.00
68226;BME280;55045;49.410;11.030;2022-08-19T04:23:57;97502.75;;;19.65;100.00
68226;BME280;55045;49.410;11.030;2022-08-19T04:27:02;97506.06;;;19.67;100.00
68226;BME280;55045;49.410;11.030;2022-08-19T04:30:07;97511.03;;;19.70;100.00
68226;BME280;55045;49.410;11.030;2022-08-19T04:33:11;97516.94;;;19.82;100.00
68226;BME280;55045;49.410;11.030;2022-08-19T04:36:18;97525.16;;;19.69;100.00
68226;BME280;55045;49.410;11.030;2022-08-19T04:39:26;97527.91;;;19.77;100.00
68226;BME280;55045;49.410;11.030;2022-08-19T04:42:50;97537.94;;;19.64;100.00
68226;BME280;55045;49.410;11.030;2022-08-19T04:45:53;97543.19;;;19.64;100.00
68226;BME280;55045;49.410;11.030;2022-08-19T04:49:04;97547.56;;;19.83;100.00
68226;BME280;55045;49.410;11.030;2022-08-19T04:52:15;97553.31;;;19.96;100.00
68226;BME280;55045;49.410;11.030;2022-08-19T04:55:40;97556.81;;;19.87;100.00
68226;BME280;55045;49.410;11.030;2022-08-19T04:58:44;97559.19;;;19.80;100.00
68226;BME280;55045;49.410;11.030;2022-08-19T05:01:48;97558.72;;;19.95;100.00
68226;BME280;55045;49.410;11.030;2022-08-19T05:04:56;97557.06;;;19.94;100.00
68226;BME280;55045;49.410;11.030;2022-08-19T05:08:04;97563.84;;;19.96;100.00
68226;BME280;55045;49.410;11.030;2022-08-19T05:11:10;97550.09;;;19.75;100.00
68226;BME280;55045;49.410;11.030;2022-08-19T05:14:15;97587.56;;;20.14;100.00
68226;BME280;55045;49.410;11.030;2022-08-19T05:17:21;97573.72;;;19.84;100.00
68226;BME280;55045;49.410;11.030;2022-08-19T05:20:29;97586.81;;;20.04;100.00
68226;BME280;55045;49.410;11.030;2022-08-19T05:23:51;97589.63;;;19.93;100.00
68226;BME280;55045;49.410;11.030;2022-08-19T05:26:56;97594.03;;;19.92;100.00
68226;BME280;55045;49.410;11.030;2022-08-19T05:30:00;97594.09;;;20.10;100.00
68226;BME280;55045;49.410;11.030;2022-08-19T05:33:04;97591.19;;;20.13;100.00
68226;BME280;55045;49.410;11.030;2022-08-19T05:36:08;97590.28;;;20.22;100.00
68226;BME280;55045;49.410;11.030;2022-08-19T05:39:15;97587.84;;;20.11;100.00
68226;BME280;55045;49.410;11.030;2022-08-19T05:42:19;97590.63;;;20.09;100.00
68226;BME280;55045;49.410;11.030;2022-08-19T05:45:25;97590.03;;;19.88;100.00
68226;BME280;55045;49.410;11.030;2022-08-19T05:48:28;97595.69;;;20.03;100.00
68226;BME280;55045;49.410;11.030;2022-08-19T05:51:32;97596.97;;;20.17;100.00
68226;BME280;55045;49.410;11.030;2022-08-19T05:54:41;97580.66;;;20.13;100.00
68226;BME280;55045;49.410;11.030;2022-08-19T05:57:44;97580.00;;;20.29;100.00
68226;BME280;55045;49.410;11.030;2022-08-19T06:00:47;97587.97;;;20.47;100.00
68226;BME280;55045;49.410;11.030;2022-08-19T06:03:52;97583.38;;;20.21;100.00
68226;BME280;55045;49.410;11.030;2022-08-19T06:06:55;97566.41;;;20.33;100.00
68226;BME280;55045;49.410;11.030;2022-08-19T06:10:01;97570.75;;;20.70;100.00
68226;BME280;55045;49.410;11.030;2022-08-19T06:13:05;97564.94;;;20.66;100.00
68226;BME280;55045;49.410;11.030;2022-08-19T06:16:08;97569.47;;;20.74;100.00
68226;BME280;55045;49.410;11.030;2022-08-19T06:19:13;97580.47;;;20.87;100.00
68226;BME280;55045;49.410;11.030;2022-08-19T06:22:17;97570.50;;;20.81;100.00
68226;BME280;55045;49.410;11.030;2022-08-19T06:25:22;97571.94;;;20.58;100.00
68226;BME280;55045;49.410;11.030;2022-08-19T06:28:31;97566.97;;;20.73;100.00
68226;BME280;55045;49.410;11.030;2022-08-19T06:31:36;97564.88;;;20.76;100.00
68226;BME280;55045;49.410;11.030;2022-08-19T06:34:40;97568.94;;;20.88;100.00
68226;BME280;55045;49.410;11.030;2022-08-19T06:37:44;97566.28;;;20.88;100.00
68226;BME280;55045;49.410;11.030;2022-08-19T06:40:49;97571.06;;;20.67;100.00
68226;BME280;55045;49.410;11.030;2022-08-19T06:43:53;97584.44;;;20.74;100.00
68226;BME280;55045;49.410;11.030;2022-08-19T06:46:57;97581.91;;;20.64;100.00
68226;BME280;55045;49.410;11.030;2022-08-19T06:50:01;97581.38;;;20.78;100.00
68226;BME280;55045;49.410;11.030;2022-08-19T06:53:06;97578.19;;;20.92;100.00
68226;BME280;55045;49.410;11.030;2022-08-19T06:56:12;97584.91;;;20.87;100.00
68226;BME280;55045;49.410;11.030;2022-08-19T06:59:22;97593.31;;;20.90;100.00
68226;BME280;55045;49.410;11.030;2022-08-19T07:02:29;97596.44;;;20.86;100.00
68226;BME280;55045;49.410;11.030;2022-08-19T07:05:32;97606.50;;;20.90;100.00
68226;BME280;55045;49.410;11.030;2022-08-19T07:08:40;97607.03;;;20.94;100.00
68226;BME280;55045;49.410;11.030;2022-08-19T07:11:48;97585.50;;;20.98;100.00
68226;BME280;55045;49.410;11.030;2022-08-19T07:14:51;97606.19;;;20.93;100.00
68226;BME280;55045;49.410;11.030;2022-08-19T07:17:55;97618.94;;;20.98;100.00
68226;BME280;55045;49.410;11.030;2022-08-19T07:21:04;97608.47;;;20.88;100.00
68226;BME280;55045;49.410;11.030;2022-08-19T07:24:10;97613.81;;;20.96;100.00
68226;BME280;55045;49.410;11.030;2022-08-19T07:27:15;97623.06;;;21.00;100.00
68226;BME280;55045;49.410;11.030;2022-08-19T07:30:25;97622.47;;;21.07;100.00
68226;BME280;55045;49.410;11.030;2022-08-19T07:33:28;97621.94;;;21.03;100.00
68226;BME280;55045;49.410;11.030;2022-08-19T07:36:36;97622.25;;;21.00;100.00
68226;BME280;55045;49.410;11.030;2022-08-19T07:39:40;97626.38;;;21.03;100.00
68226;BME280;55045;49.410;11.030;2022-08-19T07:42:45;97629.69;;;21.05;100.00
68226;BME280;55045;49.410;11.030;2022-08-19T07:45:48;97636.84;;;20.94;100.00
68226;BME280;55045;49.410;11.030;2022-08-19T07:48:52;97633.19;;;20.87;100.00
68226;BME280;55045;49.410;11.030;2022-08-19T07:51:57;97631.06;;;21.09;100.00
68226;BME280;55045;49.410;11.030;2022-08-19T07:55:04;97634.59;;;20.82;100.00
68226;BME280;55045;49.410;11.030;2022-08-19T07:58:31;97628.56;;;20.71;100.00
68226;BME280;55045;49.410;11.030;2022-08-19T08:01:35;97623.91;;;20.83;100.00
68226;BME280;55045;49.410;11.030;2022-08-19T08:04:43;97616.47;;;20.96;100.00
68226;BME280;55045;49.410;11.030;2022-08-19T08:08:03;97621.25;;;21.19;100.00
68226;BME280;55045;49.410;11.030;2022-08-19T08:11:52;97620.81;;;21.06;100.00
68226;BME280;55045;49.410;11.030;2022-08-19T08:15:01;97623.06;;;21.00;100.00
68226;BME280;55045;49.410;11.030;2022-08-19T08:18:09;97614.50;;;20.98;100.00
68226;BME280;55045;49.410;11.030;2022-08-19T08:21:13;97620.38;;;21.28;100.00
68226;BME280;55045;49.410;11.030;2022-08-19T08:24:17;97620.63;;;21.25;100.00
68226;BME280;55045;49.410;11.030;2022-08-19T08:27:20;97619.16;;;21.40;100.00
68226;BME280;55045;49.410;11.030;2022-08-19T08:30:29;97606.38;;;21.53;100.00
68226;BME280;55045;49.410;11.030;2022-08-19T08:33:35;97588.28;;;21.59;100.00
68226;BME280;55045;49.410;11.030;2022-08-19T08:36:40;97589.50;;;21.72;100.00
68226;BME280;55045;49.410;11.030;2022-08-19T08:39:43;97593.84;;;21.30;100.00
68226;BME280;55045;49.410;11.030;2022-08-19T08:42:54;97600.84;;;21.21;100.00
68226;BME280;55045;49.410;11.030;2022-08-19T08:46:05;97611.78;;;21.26;100.00
68226;BME280;55045;49.410;11.030;2022-08-19T08:49:23;97615.59;;;21.14;100.00
68226;BME280;55045;49.410;11.030;2022-08-19T08:52:31;97606.75;;;20.97;100.00
68226;BME280;55045;49.410;11.030;2022-08-19T08:55:37;97624.00;;;21.27;100.00
68226;BME280;55045;49.410;11.030;2022-08-19T08:58:50;97619.06;;;21.32;100.00
68226;BME280;55045;49.410;11.030;2022-08-19T09:01:57;97621.50;;;21.08;100.00
68226;BME280;55045;49.410;11.030;2022-08-19T09:05:00;97606.41;;;21.18;100.00
68226;BME280;55045;49.410;11.030;2022-08-19T09:08:07;97624.97;;;20.90;100.00
68226;BME280;55045;49.410;11.030;2022-08-19T09:11:19;97625.91;;;21.25;100.00
68226;BME280;55045;49.410;11.030;2022-08-19T09:14:48;97623.06;;;21.00;100.00
68226;BME280;55045;49.410;11.030;2022-08-19T09:17:59;97610.94;;;21.08;100.00
68226;BME280;55045;49.410;11.030;2022-08-19T09:21:03;97624.41;;;21.05;100.00
68226;BME280;55045;49.410;11.030;2022-08-19T09:24:07;97623.97;;;20.91;100.00
68226;BME280;55045;49.410;11.030;2022-08-19T09:27:10;97630.75;;;21.12;100.00
68226;BME280;55045;49.410;11.030;2022-08-19T09:30:22;97625.56;;;21.20;100.00
68226;BME280;55045;49.410;11.030;2022-08-19T09:34:29;97628.13;;;21.30;100.00
68226;BME280;55045;49.410;11.030;2022-08-19T09:37:39;97624.19;;;21.34;100.00
68226;BME280;55045;49.410;11.030;2022-08-19T09:40:44;97620.94;;;21.22;100.00
68226;BME280;55045;49.410;11.030;2022-08-19T09:43:49;97618.66;;;21.45;100.00
68226;BME280;55045;49.410;11.030;2022-08-19T09:46:57;97608.06;;;21.63;100.00
68226;BME280;55045;49.410;11.030;2022-08-19T09:50:03;97611.25;;;21.66;100.00
68226;BME280;55045;49.410;11.030;2022-08-19T09:53:07;97619.22;;;21.48;100.00
68226;BME280;55045;49.410;11.030;2022-08-19T09:56:12;97621.13;;;21.64;100.00
68226;BME280;55045;49.410;11.030;2022-08-19T09:59:16;97577.19;;;21.29;100.00
68226;BME280;55045;49.410;11.030;2022-08-19T10:02:19;97638.16;;;21.26;100.00
68226;BME280;55045;49.410;11.030;2022-08-19T10:05:24;97640.19;;;21.32;100.00
68226;BME280;55045;49.410;11.030;2022-08-19T10:08:50;97629.00;;;21.20;100.00
68226;BME280;55045;49.410;11.030;2022-08-19T10:11:54;97646.25;;;21.15;100.00
68226;BME280;55045;49.410;11.030;2022-08-19T10:14:57;97639.72;;;21.19;100.00
68226;BME280;55045;49.410;11.030;2022-08-19T10:18:01;97641.56;;;21.36;100.00
68226;BME280;55045;49.410;11.030;2022-08-19T10:21:09;97637.31;;;21.25;100.00
68226;BME280;55045;49.410;11.030;2022-08-19T10:24:13;97643.44;;;21.26;100.00
68226;BME280;55045;49.410;11.030;2022-08-19T10:27:19;97638.16;;;21.26;100.00
68226;BME280;55045;49.410;11.030;2022-08-19T10:30:23;97579.47;;;21.06;100.00
68226;BME280;55045;49.410;11.030;2022-08-19T10:33:26;97649.06;;;21.31;100.00
68226;BME280;55045;49.410;11.030;2022-08-19T10:36:55;97636.09;;;21.20;100.00
68226;BME280;55045;49.410;11.030;2022-08-19T10:40:04;97643.19;;;21.19;100.00
68226;BME280;55045;49.410;11.030;2022-08-19T10:43:08;97654.34;;;21.31;100.00
68226;BME280;55045;49.410;11.030;2022-08-19T10:46:15;97645.00;;;21.19;100.00
68226;BME280;55045;49.410;11.030;2022-08-19T10:49:19;97646.25;;;21.15;100.00
68226;BME280;55045;49.410;11.030;2022-08-19T10:52:29;97640.06;;;21.24;100.00
68226;BME280;55045;49.410;11.030;2022-08-19T10:55:40;97645.09;;;21.27;100.00
68226;BME280;55045;49.410;11.030;2022-08-19T10:59:01;97613.13;;;20.94;100.00
68226;BME280;55045;49.410;11.030;2022-08-19T11:02:07;97645.50;;;21.22;100.00
68226;BME280;55045;49.410;11.030;2022-08-19T11:05:13;97637.69;;;21.13;100.00
68226;BME280;55045;49.410;11.030;2022-08-19T11:08:18;97656.63;;;21.26;100.00
68226;BME280;55045;49.410;11.030;2022-08-19T11:11:25;97644.78;;;21.30;100.00
68226;BME280;55045;49.410;11.030;2022-08-19T11:14:29;97632.19;;;21.06;100.00
68226;BME280;55045;49.410;11.030;2022-08-19T11:17:35;97646.50;;;21.21;100.00
68226;BME280;55045;49.410;11.030;2022-08-19T11:20:41;97641.31;;;21.30;100.00
68226;BME280;55045;49.410;11.030;2022-08-19T11:23:47;97646.66;;;21.38;100.00
68226;BME280;55045;49.410;11.030;2022-08-19T11:26:54;97579.16;;;21.09;100.00
68226;BME280;55045;49.410;11.030;2022-08-19T11:30:01;97636.28;;;21.36;100.00
68226;BME280;55045;49.410;11.030;2022-08-19T11:33:07;97641.88;;;21.23;100.00
68226;BME280;55045;49.410;11.030;2022-08-19T11:36:12;97643.66;;;21.33;100.00
68226;BME280;55045;49.410;11.030;2022-08-19T11:39:21;97645.13;;;21.35;100.00
68226;BME280;55045;49.410;11.030;2022-08-19T11:42:25;97639.94;;;21.43;100.00
68226;BME280;55045;49.410;11.030;2022-08-19T11:45:45;97632.91;;;21.52;100.00
68226;BME280;55045;49.410;11.030;2022-08-19T11:48:50;97641.25;;;21.39;100.00
68226;BME280;55045;49.410;11.030;2022-08-19T11:51:54;97634.16;;;21.40;100.00
68226;BME280;55045;49.410;11.030;2022-08-19T11:54:59;97610.41;;;21.22;100.00
68226;BME280;55045;49.410;11.030;2022-08-19T11:58:02;97636.22;;;21.28;100.00
68226;BME280;55045;49.410;11.030;2022-08-19T12:01:21;97639.06;;;21.17;100.00
68226;BME280;55045;49.410;11.030;2022-08-19T12:04:26;97636.50;;;21.07;100.00
68226;BME280;55045;49.410;11.030;2022-08-19T12:07:29;97657.78;;;20.78;100.00
68226;BME280;55045;49.410;11.030;2022-08-19T12:10:36;97668.50;;;20.39;100.00
68226;BME280;55045;49.410;11.030;2022-08-19T12:13:40;97679.44;;;20.17;100.00
68226;BME280;55045;49.410;11.030;2022-08-19T12:16:47;97683.44;;;20.11;100.00
68226;BME280;55045;49.410;11.030;2022-08-19T12:19:53;97685.91;;;20.23;100.00
68226;BME280;55045;49.410;11.030;2022-08-19T12:22:57;97680.97;;;20.10;100.00
68226;BME280;55045;49.410;11.030;2022-08-19T12:26:02;97687.34;;;20.07;100.00
68226;BME280;55045;49.410;11.030;2022-08-19T12:29:05;97686.78;;;20.13;100.00
68226;BME280;55045;49.410;11.030;2022-08-19T12:32:08;97637.44;;;19.78;100.00
68226;BME280;55045;49.410;11.030;2022-08-19T12:35:13;97696.50;;;20.13;100.00
68226;BME280;55045;49.410;11.030;2022-08-19T12:38:16;97689.00;;;20.08;100.00
68226;BME280;55045;49.410;11.030;2022-08-19T12:41:21;97690.75;;;20.27;100.00
68226;BME280;55045;49.410;11.030;2022-08-19T12:44:24;97694.47;;;19.97;100.00
68226;BME280;55045;49.410;11.030;2022-08-19T12:47:30;97694.19;;;19.91;100.00
68226;BME280;55045;49.410;11.030;2022-08-19T12:50:38;97695.31;;;19.78;100.00
68226;BME280;55045;49.410;11.030;2022-08-19T12:53:42;97697.53;;;19.93;100.00
68226;BME280;55045;49.410;11.030;2022-08-19T12:56:47;97706.50;;;20.00;100.00
68226;BME280;55045;49.410;11.030;2022-08-19T12:59:52;97710.38;;;20.05;100.00
68226;BME280;55045;49.410;11.030;2022-08-19T13:02:56;97703.13;;;20.17;100.00
68226;BME280;55045;49.410;11.030;2022-08-19T13:05:59;97717.97;;;20.08;100.00
68226;BME280;55045;49.410;11.030;2022-08-19T13:09:03;97709.28;;;19.89;100.00
68226;BME280;55045;49.410;11.030;2022-08-19T13:12:08;97717.63;;;19.94;100.00
68226;BME280;55045;49.410;11.030;2022-08-19T13:15:17;97717.88;;;19.91;100.00
68226;BME280;55045;49.410;11.030;2022-08-19T13:18:25;97713.16;;;20.04;100.00
68226;BME280;55045;49.410;11.030;2022-08-19T13:21:28;97714.63;;;20.16;100.00
68226;BME280;55045;49.410;11.030;2022-08-19T13:24:32;97694.94;;;20.20;100.00
68226;BME280;55045;49.410;11.030;2022-08-19T13:27:38;97719.41;;;20.30;100.00
68226;BME280;55045;49.410;11.030;2022-08-19T13:30:42;97723.91;;;20.20;100.00
68226;BME280;55045;49.410;11.030;2022-08-19T13:34:27;97732.47;;;20.22;100.00
68226;BME280;55045;49.410;11.030;2022-08-19T13:37:32;97722.91;;;20.21;100.00
68226;BME280;55045;49.410;11.030;2022-08-19T13:40:44;97726.66;;;20.28;100.00
68226;BME280;55045;49.410;11.030;2022-08-19T13:43:49;97725.78;;;20.37;100.00
68226;BME280;55045;49.410;11.030;2022-08-19T13:46:53;97729.38;;;20.36;100.00
68226;BME280;55045;49.410;11.030;2022-08-19T13:49:56;97718.03;;;20.36;100.00
68226;BME280;55045;49.410;11.030;2022-08-19T13:53:01;97730.25;;;20.27;100.00
68226;BME280;55045;49.410;11.030;2022-08-19T13:56:06;97732.22;;;20.16;100.00
68226;BME280;55045;49.410;11.030;2022-08-19T13:59:11;97725.34;;;20.05;100.00
68226;BME280;55045;49.410;11.030;2022-08-19T14:02:15;97729.88;;;20.12;100.00
68226;BME280;55045;49.410;11.030;2022-08-19T14:05:20;97735.28;;;20.11;100.00
68226;BME280;55045;49.410;11.030;2022-08-19T14:08:23;97728.03;;;20.23;100.00
68226;BME280;55045;49.410;11.030;2022-08-19T14:11:27;97719.75;;;20.18;100.00
68226;BME280;55045;49.410;11.030;2022-08-19T14:14:32;97747.25;;;20.42;100.00
68226;BME280;55045;49.410;11.030;2022-08-19T14:17:39;97734.72;;;20.17;100.00
68226;BME280;55045;49.410;11.030;2022-08-19T14:20:43;97741.94;;;20.15;100.00
68226;BME280;55045;49.410;11.030;2022-08-19T14:23:47;97746.78;;;20.10;100.00
68226;BME280;55045;49.410;11.030;2022-08-19T14:26:50;97748.03;;;20.16;100.00
68226;BME280;55045;49.410;11.030;2022-08-19T14:29:56;97745.13;;;20.09;100.00
68226;BME280;55045;49.410;11.030;2022-08-19T14:33:01;97751.09;;;19.92;100.00
68226;BME280;55045;49.410;11.030;2022-08-19T14:36:05;97753.75;;;19.82;100.00
68226;BME280;55045;49.410;11.030;2022-08-19T14:39:08;97745.06;;;19.62;100.00
68226;BME280;55045;49.410;11.030;2022-08-19T14:42:12;97749.34;;;19.44;100.00
68226;BME280;55045;49.410;11.030;2022-08-19T14:45:17;97753.31;;;19.28;100.00
68226;BME280;55045;49.410;11.030;2022-08-19T14:48:21;97753.59;;;19.16;100.00
68226;BME280;55045;49.410;11.030;2022-08-19T14:51:30;97756.31;;;18.95;100.00
68226;BME280;55045;49.410;11.030;2022-08-19T14:54:33;97767.13;;;18.92;100.00
68226;BME280;55045;49.410;11.030;2022-08-19T14:57:37;97770.25;;;18.76;100.00
68226;BME280;55045;49.410;11.030;2022-08-19T15:00:41;97761.81;;;18.73;100.00
68226;BME280;55045;49.410;11.030;2022-08-19T15:03:45;97769.09;;;18.69;100.00
68226;BME280;55045;49.410;11.030;2022-08-19T15:06:49;97769.44;;;18.85;100.00
68226;BME280;55045;49.410;11.030;2022-08-19T15:09:52;97766.41;;;18.59;100.00
68226;BME280;55045;49.410;11.030;2022-08-19T15:12:56;97783.56;;;18.63;100.00
68226;BME280;55045;49.410;11.030;2022-08-19T15:16:01;97790.28;;;18.77;100.00
68226;BME280;55045;49.410;11.030;2022-08-19T15:19:04;97787.28;;;18.82;100.00
68226;BME280;55045;49.410;11.030;2022-08-19T15:22:08;97788.00;;;18.63;100.00
68226;BME280;55045;49.410;11.030;2022-08-19T15:25:14;97791.28;;;18.86;100.00
68226;BME280;55045;49.410;11.030;2022-08-19T15:28:17;97791.66;;;18.72;100.00
68226;BME280;55045;49.410;11.030;2022-08-19T15:34:29;97797.28;;;18.16;100.00
68226;BME280;55045;49.410;11.030;2022-08-19T15:37:33;97801.63;;;18.26;100.00
68226;BME280;55045;49.410;11.030;2022-08-19T15:40:39;97802.34;;;18.07;100.00
68226;BME280;55045;49.410;11.030;2022-08-19T15:43:43;97801.78;;;18.04;100.00
68226;BME280;55045;49.410;11.030;2022-08-19T15:46:47;97808.13;;;18.01;100.00
68226;BME280;55045;49.410;11.030;2022-08-19T15:49:52;97809.22;;;17.99;100.00
68226;BME280;55045;49.410;11.030;2022-08-19T15:53:03;97806.13;;;17.94;100.00
68226;BME280;55045;49.410;11.030;2022-08-19T15:56:08;97805.16;;;17.95;100.00
68226;BME280;55045;49.410;11.030;2022-08-19T15:59:12;97811.25;;;17.95;100.00
68226;BME280;55045;49.410;11.030;2022-08-19T16:02:29;97805.50;;;18.01;100.00
68226;BME280;55045;49.410;11.030;2022-08-19T16:05:55;97821.59;;;17.97;100.00
68226;BME280;55045;49.410;11.030;2022-08-19T16:09:18;97813.66;;;17.87;100.00
68226;BME280;55045;49.410;11.030;2022-08-19T16:12:28;97824.28;;;17.85;100.00